Time;durP1;ratioP1;P1;durP2;ratioP2;P2;SDS_P1;SDS_P2;PMS_P1;PMS_P2;Temp;Humidity;BMP_temperature;BMP_pressure;BME280_temperature;BME280_humidity;BME280_pressure;Samples;Min_cycle;Max_cycle;Signal;HPM_P1;HPM_P2
2022/05/19 00:00:16;;;;;;;21.20;15.18;;;14.30;99.90;;;;;;5076321;28;20514;-71
2022/05/19 00:02:42;;;;;;;23.75;16.42;;;14.20;99.90;;;;;;5076237;28;20403;-71
2022/05/19 00:05:08;;;;;;;22.98;16.48;;;14.30;99.90;;;;;;5094209;28;20052;-72
2022/05/19 00:07:34;;;;;;;21.73;16.40;;;14.10;99.90;;;;;;5093988;28;20051;-71
2022/05/19 00:09:59;;;;;;;20.55;15.60;;;14.30;99.90;;;;;;5094246;28;20059;-71
2022/05/19 00:12:25;;;;;;;14.85;13.18;;;14.10;99.90;;;;;;5076076;28;20051;-71
2022/05/19 00:14:51;;;;;;;18.77;14.73;;;14.10;99.90;;;;;;5094187;28;20369;-70
2022/05/19 00:17:17;;;;;;;21.35;15.75;;;14.20;99.90;;;;;;5093956;28;20036;-70
2022/05/19 00:19:42;;;;;;;22.13;15.00;;;14.20;99.90;;;;;;5094273;28;20064;-70
2022/05/19 00:22:08;;;;;;;23.77;16.60;;;14.20;99.90;;;;;;5094188;28;20539;-70
2022/05/19 00:24:34;;;;;;;22.73;16.20;;;14.20;99.90;;;;;;5075241;28;20056;-71
2022/05/19 00:27:00;;;;;;;19.35;15.57;;;14.20;99.90;;;;;;5094265;28;20043;-71
2022/05/19 00:29:26;;;;;;;21.10;16.08;;;14.20;99.90;;;;;;5076415;28;20491;-70
2022/05/19 00:31:52;;;;;;;22.33;17.27;;;14.20;99.90;;;;;;5093672;28;20058;-71
2022/05/19 00:34:17;;;;;;;24.63;16.90;;;14.30;99.90;;;;;;5093703;28;20048;-70
2022/05/19 00:36:43;;;;;;;22.48;17.30;;;14.30;99.90;;;;;;5093997;28;20051;-71
2022/05/19 00:39:10;;;;;;;25.15;17.73;;;14.30;99.90;;;;;;5075126;28;20040;-70
2022/05/19 00:41:41;;;;;;;22.83;17.58;;;14.30;99.90;;;;;;5075539;28;20105;-74
2022/05/19 00:44:07;;;;;;;25.30;16.50;;;14.30;99.90;;;;;;5058974;28;20048;-72
2022/05/19 00:46:43;;;;;;;23.85;17.70;;;14.20;99.90;;;;;;5093658;28;20055;-70
2022/05/19 00:49:25;;;;;;;27.08;20.52;;;14.20;99.90;;;;;;5093873;28;20047;-71
2022/05/19 00:51:54;;;;;;;33.42;20.40;;;14.30;99.90;;;;;;5075559;28;20052;-70
2022/05/19 00:54:26;;;;;;;28.88;21.42;;;14.30;99.90;;;;;;5075042;28;20097;-72
2022/05/19 00:57:12;;;;;;;33.75;23.00;;;14.40;99.90;;;;;;5093423;28;20096;-71
2022/05/19 00:59:46;;;;;;;27.13;20.27;;;14.30;99.90;;;;;;5093424;28;20047;-71
2022/05/19 01:02:15;;;;;;;27.95;21.55;;;14.50;99.90;;;;;;5093360;28;20444;-70
2022/05/19 01:04:56;;;;;;;30.08;20.90;;;14.30;99.90;;;;;;5093134;28;20562;-72
2022/05/19 01:07:33;;;;;;;32.58;22.42;;;14.40;99.90;;;;;;5074913;28;20052;-71
2022/05/19 01:09:59;;;;;;;36.15;22.50;;;14.40;99.90;;;;;;5092801;28;20060;-71
2022/05/19 01:12:26;;;;;;;34.58;22.33;;;14.50;99.90;;;;;;5093107;28;20032;-72
2022/05/19 01:14:52;;;;;;;31.13;21.10;;;14.40;99.90;;;;;;5074717;28;20102;-71
2022/05/19 01:17:18;;;;;;;31.23;21.73;;;14.50;99.90;;;;;;5093061;28;20052;-71
2022/05/19 01:19:48;;;;;;;29.25;24.25;;;14.50;99.90;;;;;;5093085;28;20104;-72
2022/05/19 01:22:35;;;;;;;35.13;25.35;;;14.50;99.90;;;;;;5074634;28;20051;-70
2022/05/19 01:25:07;;;;;;;32.05;23.35;;;14.60;99.90;;;;;;5074211;28;20551;-71
2022/05/19 01:27:34;;;;;;;30.52;21.15;;;14.50;99.90;;;;;;5092762;28;20052;-72
2022/05/19 01:29:59;;;;;;;31.40;22.33;;;14.60;99.90;;;;;;5092792;28;20067;-72
2022/05/19 01:32:28;;;;;;;35.03;22.90;;;14.60;99.90;;;;;;5092757;28;20487;-71
2022/05/19 01:34:54;;;;;;;35.75;23.20;;;14.60;99.90;;;;;;5074465;28;20044;-71
2022/05/19 01:37:21;;;;;;;30.95;22.98;;;14.60;99.90;;;;;;5092864;28;20181;-71
2022/05/19 01:39:54;;;;;;;34.13;25.10;;;14.60;99.90;;;;;;5057720;28;20044;-71
2022/05/19 01:42:30;;;;;;;32.77;23.00;;;14.60;99.90;;;;;;5091956;28;20044;-72
2022/05/19 01:45:14;;;;;;;34.70;24.80;;;14.60;99.90;;;;;;5074656;28;20188;-72
2022/05/19 01:47:52;;;;;;;35.38;24.15;;;14.60;99.90;;;;;;5074242;28;20052;-71
2022/05/19 01:50:29;;;;;;;33.67;24.13;;;14.70;99.90;;;;;;5092293;28;20832;-71
2022/05/19 01:53:12;;;;;;;36.10;24.27;;;14.70;99.90;;;;;;5092337;28;20059;-71
2022/05/19 01:56:02;;;;;;;33.10;23.58;;;14.70;99.90;;;;;;5092194;28;20127;-72
2022/05/19 01:58:40;;;;;;;32.83;23.08;;;14.70;99.90;;;;;;5057451;28;20609;-71
2022/05/19 02:01:08;;;;;;;33.80;24.50;;;14.80;99.90;;;;;;5092126;28;20529;-72
2022/05/19 02:03:51;;;;;;;36.35;24.75;;;14.90;99.90;;;;;;5073794;28;20116;-71
2022/05/19 02:06:54;;;;;;;40.22;25.58;;;14.90;99.90;;;;;;5092116;28;20044;-71
2022/05/19 02:09:35;;;;;;;42.25;26.40;;;14.90;99.90;;;;;;5078242;28;20075;-71
2022/05/19 02:12:02;;;;;;;40.17;26.58;;;14.90;99.90;;;;;;5073212;28;20499;-70
2022/05/19 02:14:35;;;;;;;43.00;28.08;;;15.00;99.90;;;;;;5091848;28;20044;-71
2022/05/19 02:17:04;;;;;;;41.90;30.08;;;15.00;99.90;;;;;;5091738;28;20126;-69
2022/05/19 02:19:38;;;;;;;40.13;29.00;;;15.00;99.90;;;;;;5091393;28;20036;-71
2022/05/19 02:22:09;;;;;;;35.42;27.17;;;15.20;99.90;;;;;;5091747;28;20040;-71
2022/05/19 02:24:40;;;;;;;39.33;25.90;;;15.00;99.90;;;;;;5091626;28;20048;-71
2022/05/19 02:27:34;;;;;;;41.25;26.10;;;15.00;99.90;;;;;;5091382;28;20101;-72
2022/05/19 02:30:08;;;;;;;39.47;27.38;;;15.00;99.90;;;;;;5091925;28;20075;-72
2022/05/19 02:32:35;;;;;;;45.45;29.75;;;15.00;99.90;;;;;;5091645;28;20036;-71
2022/05/19 02:35:01;;;;;;;43.95;30.73;;;15.00;99.90;;;;;;5091469;28;20044;-71
2022/05/19 02:37:27;;;;;;;38.40;28.33;;;15.00;99.90;;;;;;5073095;28;20562;-72
2022/05/19 02:39:53;;;;;;;45.17;29.70;;;15.00;99.90;;;;;;5091347;28;20126;-71
2022/05/19 02:42:19;;;;;;;47.00;31.17;;;15.00;99.90;;;;;;5091183;28;20036;-71
2022/05/19 02:44:44;;;;;;;42.65;30.17;;;15.10;99.90;;;;;;5073293;28;20059;-71
2022/05/19 02:47:10;;;;;;;56.22;34.03;;;15.00;99.90;;;;;;5091510;28;20047;-71
2022/05/19 02:49:36;;;;;;;41.88;32.13;;;15.00;99.90;;;;;;5073345;28;20054;-70
2022/05/19 02:52:02;;;;;;;44.63;32.22;;;15.10;99.90;;;;;;5073003;28;20040;-71
2022/05/19 02:54:27;;;;;;;44.15;32.85;;;15.10;99.90;;;;;;5091359;28;20127;-71
2022/05/19 02:56:53;;;;;;;55.55;37.72;;;15.10;99.90;;;;;;5073201;28;20044;-71
2022/05/19 02:59:18;;;;;;;52.63;36.53;;;15.20;99.90;;;;;;5090795;28;20059;-70
2022/05/19 03:01:44;;;;;;;50.05;35.88;;;15.10;99.90;;;;;;5091236;28;20137;-72
2022/05/19 03:04:10;;;;;;;56.05;36.85;;;15.10;99.90;;;;;;5072230;28;20515;-71
2022/05/19 03:06:35;;;;;;;57.70;39.33;;;15.10;99.90;;;;;;5090817;28;20134;-71
2022/05/19 03:09:02;;;;;;;56.65;37.72;;;15.20;99.90;;;;;;5072884;28;20126;-71
2022/05/19 03:11:27;;;;;;;60.25;40.70;;;15.20;99.90;;;;;;5090899;28;20483;-71
2022/05/19 03:13:53;;;;;;;56.13;39.50;;;15.20;99.90;;;;;;5072118;28;20063;-71
2022/05/19 03:16:18;;;;;;;63.10;40.58;;;15.20;99.90;;;;;;5091121;28;20089;-70
2022/05/19 03:18:44;;;;;;;66.80;42.63;;;15.20;99.90;;;;;;5073027;28;20044;-71
2022/05/19 03:21:09;;;;;;;61.03;41.10;;;15.30;99.90;;;;;;5090943;28;20086;-71
2022/05/19 03:23:35;;;;;;;53.47;40.42;;;15.30;99.90;;;;;;5090924;28;20039;-72
2022/05/19 03:26:01;;;;;;;59.65;42.75;;;15.30;99.90;;;;;;5090803;28;20040;-72
2022/05/19 03:28:26;;;;;;;63.67;42.75;;;15.40;99.90;;;;;;5090623;28;20518;-71
2022/05/19 03:30:52;;;;;;;55.42;39.08;;;15.30;99.90;;;;;;5089588;28;20044;-71
2022/05/19 03:33:18;;;;;;;64.22;43.17;;;15.50;99.90;;;;;;5072034;28;20484;-72
2022/05/19 03:35:43;;;;;;;55.25;42.20;;;15.40;99.90;;;;;;5090626;28;20047;-73
2022/05/19 03:38:10;;;;;;;60.13;42.42;;;15.40;99.90;;;;;;5090522;28;20442;-71
2022/05/19 03:40:35;;;;;;;56.05;42.83;;;15.40;99.90;;;;;;5072367;28;20052;-72
2022/05/19 03:43:01;;;;;;;59.75;41.70;;;15.40;99.90;;;;;;5090391;28;20056;-72
2022/05/19 03:45:27;;;;;;;60.47;42.30;;;15.40;99.90;;;;;;5072076;28;20064;-74
2022/05/19 03:47:52;;;;;;;57.00;42.67;;;15.50;99.90;;;;;;5090430;28;20040;-70
2022/05/19 03:50:18;;;;;;;61.17;40.17;;;15.50;99.90;;;;;;5090458;28;20040;-74
2022/05/19 03:52:44;;;;;;;59.15;41.25;;;15.60;99.90;;;;;;5090278;28;20047;-71
2022/05/19 03:55:14;;;;;;;56.05;42.42;;;15.60;99.90;;;;;;5072139;28;20122;-71
2022/05/19 03:57:40;;;;;;;60.05;43.78;;;15.70;99.90;;;;;;5090153;28;20047;-71
2022/05/19 04:00:08;;;;;;;62.50;45.13;;;15.60;99.90;;;;;;5090161;28;20089;-70
2022/05/19 04:02:34;;;;;;;66.93;45.20;;;15.70;99.90;;;;;;5090247;28;20104;-72
2022/05/19 04:05:00;;;;;;;67.75;45.25;;;15.70;99.90;;;;;;5090201;28;20056;-70
2022/05/19 04:07:25;;;;;;;64.47;45.90;;;15.70;99.90;;;;;;5090305;28;20080;-72
2022/05/19 04:09:51;;;;;;;65.93;45.50;;;15.70;99.90;;;;;;5072227;28;20052;-71
2022/05/19 04:12:20;;;;;;;67.03;44.60;;;15.70;99.90;;;;;;5090128;28;20052;-70
2022/05/19 04:14:46;;;;;;;61.30;43.92;;;15.80;99.90;;;;;;5090021;28;20101;-71
2022/05/19 04:17:12;;;;;;;63.05;44.65;;;15.80;99.90;;;;;;5089850;28;20055;-72
2022/05/19 04:19:38;;;;;;;58.10;44.42;;;15.80;99.90;;;;;;5090102;28;20044;-72
2022/05/19 04:22:03;;;;;;;77.93;47.70;;;15.80;99.90;;;;;;5090017;28;20040;-72
2022/05/19 04:24:29;;;;;;;60.80;45.55;;;15.90;99.90;;;;;;5090239;28;20123;-71
2022/05/19 04:26:55;;;;;;;60.40;43.38;;;15.90;99.90;;;;;;5090105;28;20093;-73
2022/05/19 04:29:20;;;;;;;64.82;45.92;;;15.90;99.90;;;;;;5089748;28;20051;-71
2022/05/19 04:31:46;;;;;;;61.15;44.60;;;15.90;99.90;;;;;;5089768;28;20040;-71
2022/05/19 04:34:12;;;;;;;61.03;46.70;;;16.00;99.90;;;;;;5090080;28;20475;-71
2022/05/19 04:36:37;;;;;;;61.58;42.90;;;16.20;99.90;;;;;;5089892;28;20383;-70
2022/05/19 04:39:04;;;;;;;64.85;43.60;;;16.10;99.90;;;;;;5071747;28;20119;-72
2022/05/19 04:41:29;;;;;;;61.03;43.55;;;16.10;99.90;;;;;;5072966;28;20048;-71
2022/05/19 04:43:55;;;;;;;60.72;43.90;;;16.20;99.90;;;;;;5074949;28;20113;-73
2022/05/19 04:46:20;;;;;;;61.72;44.00;;;16.30;99.90;;;;;;5093443;28;20498;-72
2022/05/19 04:48:46;;;;;;;55.22;41.97;;;16.30;99.90;;;;;;5075173;28;20102;-71
2022/05/19 04:51:12;;;;;;;63.42;43.92;;;16.40;99.90;;;;;;5093528;28;20090;-71
2022/05/19 04:53:37;;;;;;;62.95;44.78;;;16.40;99.90;;;;;;5075483;28;20114;-71
2022/05/19 04:56:03;;;;;;;57.03;42.60;;;16.60;99.90;;;;;;5093413;28;20044;-71
2022/05/19 04:58:29;;;;;;;57.85;41.28;;;16.50;99.90;;;;;;5093218;28;20047;-71
2022/05/19 05:00:54;;;;;;;64.70;42.42;;;16.70;99.90;;;;;;5075100;28;20052;-71
2022/05/19 05:03:20;;;;;;;50.58;39.10;;;16.60;99.90;;;;;;5092810;28;20054;-72
2022/05/19 05:05:46;;;;;;;53.20;38.72;;;16.80;99.90;;;;;;5093454;28;20059;-71
2022/05/19 05:08:12;;;;;;;54.92;39.22;;;16.80;99.90;;;;;;5093391;28;20044;-70
2022/05/19 05:10:39;;;;;;;50.72;39.67;;;16.90;99.90;;;;;;5075224;28;20043;-71
2022/05/19 05:13:07;;;;;;;52.88;40.88;;;16.90;99.90;;;;;;5093033;28;20082;-71
2022/05/19 05:15:33;;;;;;;53.25;38.53;;;17.00;99.90;;;;;;5075047;28;20163;-71
2022/05/19 05:17:58;;;;;;;50.60;37.50;;;17.10;99.90;;;;;;5092862;28;20661;-71
2022/05/19 05:20:24;;;;;;;51.47;39.63;;;17.20;99.90;;;;;;5093212;28;20051;-70
2022/05/19 05:22:49;;;;;;;54.78;39.63;;;17.10;99.90;;;;;;5093023;28;20032;-71
2022/05/19 05:25:16;;;;;;;57.95;39.40;;;17.10;99.90;;;;;;5092950;28;20083;-72
2022/05/19 05:27:43;;;;;;;55.97;40.70;;;17.20;99.90;;;;;;5074735;28;20056;-71
2022/05/19 05:30:10;;;;;;;58.38;41.92;;;17.20;99.90;;;;;;5074401;28;20051;-73
2022/05/19 05:32:36;;;;;;;52.40;38.03;;;17.30;99.90;;;;;;5092932;28;20180;-72
2022/05/19 05:35:03;;;;;;;51.90;37.65;;;17.30;99.90;;;;;;5074257;28;20131;-71
2022/05/19 05:37:29;;;;;;;52.15;39.47;;;17.40;99.90;;;;;;5092986;28;20047;-71
2022/05/19 05:39:54;;;;;;;44.83;36.17;;;17.50;99.90;;;;;;5092540;28;20036;-73
2022/05/19 05:42:20;;;;;;;49.05;35.33;;;17.60;99.90;;;;;;5074568;28;20480;-72
2022/05/19 05:44:45;;;;;;;47.60;36.72;;;17.70;99.90;;;;;;5092893;28;20044;-72
2022/05/19 05:47:11;;;;;;;51.70;35.95;;;17.70;99.90;;;;;;5092647;28;20076;-71
2022/05/19 05:49:37;;;;;;;49.00;34.45;;;17.80;99.90;;;;;;5074296;28;20108;-72
2022/05/19 05:52:04;;;;;;;40.13;30.67;;;17.80;99.90;;;;;;5074390;28;20067;-71
2022/05/19 05:54:30;;;;;;;43.60;32.38;;;17.90;99.90;;;;;;5091272;28;20040;-72
2022/05/19 05:56:55;;;;;;;38.70;30.42;;;17.90;99.90;;;;;;5092474;28;20043;-72
2022/05/19 05:59:21;;;;;;;42.58;30.02;;;17.90;99.90;;;;;;5092259;28;20043;-69
2022/05/19 06:01:47;;;;;;;43.58;30.33;;;18.00;99.90;;;;;;5092042;28;20135;-73
2022/05/19 06:04:13;;;;;;;44.60;32.05;;;18.00;99.90;;;;;;5091871;28;20600;-71
2022/05/19 06:06:39;;;;;;;37.20;28.60;;;18.00;99.90;;;;;;5073958;28;20056;-73
2022/05/19 06:09:04;;;;;;;41.03;30.33;;;18.00;99.90;;;;;;5073956;28;20509;-73
2022/05/19 06:11:30;;;;;;;36.25;29.15;;;18.10;99.90;;;;;;5092096;28;20395;-73
2022/05/19 06:13:56;;;;;;;41.42;30.08;;;18.10;99.90;;;;;;5091961;28;20087;-73
2022/05/19 06:16:22;;;;;;;33.88;27.25;;;18.20;99.90;;;;;;5091938;28;20083;-71
2022/05/19 06:18:48;;;;;;;39.75;28.17;;;18.20;99.90;;;;;;5092065;28;20040;-73
2022/05/19 06:21:14;;;;;;;34.78;26.13;;;18.20;99.90;;;;;;5073409;28;20062;-71
2022/05/19 06:23:39;;;;;;;39.20;26.08;;;18.30;99.90;;;;;;5073598;28;20070;-72
2022/05/19 06:26:05;;;;;;;38.33;27.35;;;18.30;99.90;;;;;;5091905;28;20048;-73
2022/05/19 06:28:31;;;;;;;34.30;25.48;;;18.30;99.90;;;;;;5091810;28;20492;-72
2022/05/19 06:30:57;;;;;;;34.35;25.08;;;18.30;99.90;;;;;;5056527;28;20095;-72
2022/05/19 06:33:23;;;;;;;32.03;23.40;;;18.30;99.90;;;;;;5055439;28;20052;-74
2022/05/19 06:35:49;;;;;;;33.17;24.00;;;18.40;99.90;;;;;;5091241;28;20036;-73
2022/05/19 06:38:14;;;;;;;30.67;23.25;;;18.40;99.90;;;;;;5056175;28;20060;-72
2022/05/19 06:40:41;;;;;;;28.50;23.38;;;18.40;99.90;;;;;;5091463;28;20135;-72
2022/05/19 06:43:09;;;;;;;29.15;22.08;;;18.50;99.90;;;;;;5091474;28;20063;-72
2022/05/19 06:45:35;;;;;;;28.90;22.55;;;18.40;99.90;;;;;;5073380;28;20051;-72
2022/05/19 06:48:01;;;;;;;33.50;24.02;;;18.40;99.90;;;;;;5091364;28;20896;-72
2022/05/19 06:50:26;;;;;;;32.28;23.98;;;18.30;99.90;;;;;;5091048;28;20044;-72
2022/05/19 06:53:01;;;;;;;37.75;25.25;;;18.40;99.90;;;;;;5072753;28;20051;-72
2022/05/19 06:55:28;;;;;;;31.83;24.17;;;18.40;99.90;;;;;;5091099;28;20578;-72
2022/05/19 06:57:54;;;;;;;37.97;25.38;;;18.50;99.90;;;;;;5091251;28;20059;-71
2022/05/19 07:00:21;;;;;;;34.42;25.33;;;18.40;99.90;;;;;;5091059;28;20423;-72
2022/05/19 07:02:50;;;;;;;33.40;25.90;;;18.50;99.90;;;;;;5090978;28;20060;-71
2022/05/19 07:05:19;;;;;;;33.63;26.15;;;18.60;99.90;;;;;;5090544;28;20869;-72
2022/05/19 07:07:48;;;;;;;33.33;26.20;;;18.50;99.90;;;;;;5072581;28;20407;-71
2022/05/19 07:10:21;;;;;;;35.42;28.20;;;18.60;99.90;;;;;;5091051;28;20052;-71
2022/05/19 07:12:46;;;;;;;33.97;25.38;;;18.70;99.90;;;;;;5072616;28;20087;-72
2022/05/19 07:15:14;;;;;;;30.48;23.27;;;18.70;99.90;;;;;;5072582;28;20082;-72
2022/05/19 07:17:40;;;;;;;28.40;20.15;;;18.80;99.90;;;;;;5090953;28;20399;-71
2022/05/19 07:22:52;;;;;;;29.35;20.60;;;18.70;99.90;;;;;;5090485;28;20044;-71
2022/05/19 07:25:18;;;;;;;26.42;20.73;;;18.80;99.90;;;;;;5072583;28;20096;-71
2022/05/19 07:27:44;;;;;;;24.33;18.33;;;18.80;99.90;;;;;;5072565;28;20036;-72
2022/05/19 07:30:11;;;;;;;26.95;19.88;;;18.90;99.90;;;;;;5091009;28;20036;-72
2022/05/19 07:32:37;;;;;;;27.48;19.77;;;18.80;99.90;;;;;;5090731;28;20055;-71
2022/05/19 07:35:04;;;;;;;26.15;19.30;;;18.90;99.90;;;;;;5072851;28;20054;-71
2022/05/19 07:37:31;;;;;;;25.55;18.63;;;18.90;99.90;;;;;;5090286;28;20146;-72
2022/05/19 07:39:57;;;;;;;25.02;19.17;;;18.90;99.90;;;;;;5072036;28;20125;-71
2022/05/19 07:42:24;;;;;;;23.77;18.88;;;19.00;99.90;;;;;;5090381;28;20483;-72
2022/05/19 07:44:50;;;;;;;25.17;19.90;;;18.90;99.90;;;;;;5072206;28;20415;-71
2022/05/19 07:47:16;;;;;;;23.95;18.63;;;19.00;99.90;;;;;;5090465;28;20066;-72
2022/05/19 07:49:42;;;;;;;24.50;18.73;;;18.90;99.90;;;;;;5072623;28;20677;-71
2022/05/19 07:52:08;;;;;;;26.40;19.70;;;19.00;99.90;;;;;;5090280;28;20507;-72
2022/05/19 07:54:34;;;;;;;28.65;19.95;;;19.10;99.90;;;;;;5072347;28;20488;-72
2022/05/19 07:57:01;;;;;;;24.23;18.75;;;19.20;99.90;;;;;;5072816;28;20044;-72
2022/05/19 07:59:27;;;;;;;25.38;19.35;;;19.10;99.90;;;;;;5090440;28;20046;-72
2022/05/19 08:01:53;;;;;;;25.33;18.65;;;19.20;99.90;;;;;;5090244;28;20044;-72
2022/05/19 08:04:21;;;;;;;29.48;19.10;;;19.20;99.90;;;;;;5072020;28;20487;-73
2022/05/19 08:06:47;;;;;;;21.73;17.73;;;19.20;99.90;;;;;;5090323;28;20144;-72
2022/05/19 08:11:57;;;;;;;30.02;18.73;;;19.30;99.90;;;;;;5071713;28;20051;-72
2022/05/19 08:17:10;;;;;;;24.23;18.88;;;19.30;99.90;;;;;;5092223;28;20500;-72
2022/05/19 08:19:39;;;;;;;26.85;19.17;;;19.30;99.90;;;;;;5076055;28;20048;-72
2022/05/19 08:22:06;;;;;;;23.05;17.25;;;19.30;99.90;;;;;;5076026;28;20044;-71
2022/05/19 08:24:32;;;;;;;21.70;17.77;;;19.30;99.90;;;;;;5075456;28;20082;-71
2022/05/19 08:26:58;;;;;;;25.00;17.05;;;19.40;99.90;;;;;;5075730;28;20140;-72
2022/05/19 08:29:24;;;;;;;24.17;16.73;;;19.30;99.90;;;;;;5094015;28;20376;-70
2022/05/19 08:31:50;;;;;;;22.33;16.63;;;19.40;99.90;;;;;;5094123;28;20086;-72
2022/05/19 08:34:15;;;;;;;28.00;17.58;;;19.40;99.90;;;;;;5075587;28;20051;-71
2022/05/19 08:36:41;;;;;;;23.50;17.88;;;19.50;99.90;;;;;;5094006;28;20175;-72
2022/05/19 08:39:07;;;;;;;23.55;16.60;;;19.60;99.90;;;;;;5075352;28;20048;-72
2022/05/19 08:41:58;;;;;;;22.42;16.90;;;19.60;99.90;;;;;;5075293;28;20063;-72
2022/05/19 08:44:29;;;;;;;21.90;15.68;;;19.70;99.90;;;;;;5075883;28;20204;-76
2022/05/19 08:46:57;;;;;;;21.92;14.88;;;19.80;99.90;;;;;;5093851;28;20040;-71
2022/05/19 08:49:47;;;;;;;20.20;15.35;;;19.90;99.90;;;;;;5075437;28;20048;-73
2022/05/19 08:52:19;;;;;;;24.52;15.55;;;20.00;99.90;;;;;;5075307;28;20040;-71
2022/05/19 08:54:50;;;;;;;23.88;16.23;;;20.20;99.90;;;;;;5093550;28;20055;-73
2022/05/19 08:57:29;;;;;;;24.65;16.85;;;20.40;99.90;;;;;;5075142;28;20181;-73
2022/05/19 09:00:10;;;;;;;21.60;15.43;;;20.60;99.90;;;;;;5075131;28;20044;-71
2022/05/19 09:02:52;;;;;;;22.83;14.95;;;20.70;99.90;;;;;;5093435;28;20051;-72
2022/05/19 09:05:27;;;;;;;21.05;16.17;;;20.90;99.90;;;;;;5093217;28;20099;-72
2022/05/19 09:08:16;;;;;;;22.42;15.85;;;21.00;99.90;;;;;;5075031;28;20055;-72
2022/05/19 09:10:45;;;;;;;17.13;14.43;;;21.10;99.90;;;;;;5074349;28;20051;-70
2022/05/19 09:13:31;;;;;;;21.63;14.18;;;21.30;99.90;;;;;;5093029;28;20819;-71
2022/05/19 09:16:02;;;;;;;20.00;14.70;;;21.40;99.90;;;;;;5074453;28;20099;-71
2022/05/19 09:18:38;;;;;;;23.05;14.13;;;21.60;99.90;;;;;;5074362;28;20056;-72
2022/05/19 09:21:05;;;;;;;16.40;13.40;;;21.80;99.90;;;;;;5075126;28;20453;-71
2022/05/19 09:23:40;;;;;;;20.63;14.43;;;21.80;99.90;;;;;;5092872;28;20040;-72
2022/05/19 09:26:24;;;;;;;;;;;22.00;99.90;;;;;;5093235;28;20079;-74
2022/05/19 09:28:56;;;;;;;17.70;13.63;;;22.10;99.90;;;;;;5092848;28;19931;-73
2022/05/19 09:32:10;;;;;;;18.52;13.93;;;22.30;99.90;;;;;;5092564;28;20531;-71
2022/05/19 09:34:36;;;;;;;19.63;13.57;;;22.40;99.90;;;;;;4990907;28;20085;-72
2022/05/19 09:37:10;;;;;;;17.77;13.73;;;22.50;99.90;;;;;;4974437;28;20089;-72
2022/05/19 09:40:06;;;;;;;18.48;13.07;;;22.60;99.90;;;;;;4990696;28;20058;-71
2022/05/19 09:42:36;;;;;;;20.85;13.43;;;22.50;99.90;;;;;;4982407;28;20054;-72
2022/05/19 09:45:03;;;;;;;21.60;12.93;;;22.70;99.90;;;;;;4990623;28;20446;-71
2022/05/19 09:47:37;;;;;;;24.05;13.50;;;22.90;99.90;;;;;;4990636;28;20042;-72
2022/05/19 09:50:18;;;;;;;18.98;13.48;;;23.00;99.90;;;;;;4974629;28;20065;-73
2022/05/19 09:52:45;;;;;;;17.08;12.50;;;23.10;99.90;;;;;;4990582;28;20046;-70
2022/05/19 09:55:14;;;;;;;18.75;12.75;;;23.10;99.90;;;;;;4990491;28;20164;-72
2022/05/19 09:57:43;;;;;;;21.80;13.18;;;23.30;99.90;;;;;;4973650;28;20046;-72
2022/05/19 10:00:18;;;;;;;20.55;13.65;;;23.30;99.90;;;;;;4990486;28;20084;-72
2022/05/19 10:02:48;;;;;;;16.77;12.15;;;23.40;99.90;;;;;;4990207;28;20498;-72
2022/05/19 10:05:41;;;;;;;19.33;11.85;;;23.50;99.90;;;;;;4973643;28;20102;-72
2022/05/19 10:08:14;;;;;;;20.45;11.88;;;23.60;99.90;;;;;;4955308;28;20057;-73
2022/05/19 10:10:59;;;;;;;17.27;11.25;;;23.80;99.90;;;;;;4973636;28;20136;-72
2022/05/19 10:13:31;;;;;;;14.88;10.90;;;24.20;99.90;;;;;;4989745;28;20133;-72
2022/05/19 10:16:19;;;;;;;18.83;11.40;;;24.50;99.90;;;;;;4990055;28;20058;-73
2022/05/19 10:18:52;;;;;;;14.82;11.70;;;24.70;99.90;;;;;;4973646;28;20149;-71
2022/05/19 10:21:27;;;;;;;16.20;10.65;;;24.80;99.90;;;;;;4990038;28;20062;-71
2022/05/19 10:24:04;;;;;;;;;;;24.90;99.90;;;;;;4990676;28;20501;-71
2022/05/19 10:33:01;;;;;;;12.70;6.70;;;25.00;99.90;;;;;;4953937;28;20100;-71
2022/05/19 10:35:44;;;;;;;10.63;7.63;;;24.90;99.90;;;;;;4970158;28;20062;-73
2022/05/19 10:38:28;;;;;;;11.50;7.35;;;24.90;99.90;;;;;;4970060;28;20055;-72
2022/05/19 10:41:17;;;;;;;8.75;5.63;;;24.90;99.90;;;;;;4969824;28;20059;-70
2022/05/19 10:44:09;;;;;;;10.77;5.07;;;25.00;99.90;;;;;;4970255;28;20070;-71
2022/05/19 10:47:11;;;;;;;7.63;4.80;;;25.10;99.90;;;;;;5012303;28;20088;-72
2022/05/19 10:50:08;;;;;;;8.43;4.43;;;25.30;99.90;;;;;;5018460;28;20053;-72
2022/05/19 10:52:44;;;;;;;6.93;4.22;;;25.70;99.90;;;;;;5028639;28;20073;-72
2022/05/19 10:55:28;;;;;;;8.60;4.72;;;25.90;99.90;;;;;;5028609;28;20064;-72
2022/05/19 10:58:31;;;;;;;7.88;4.82;;;26.00;99.90;;;;;;5012070;28;20056;-72
2022/05/19 11:01:18;;;;;;;8.93;4.82;;;26.10;99.90;;;;;;5028215;28;20192;-70
2022/05/19 11:04:12;;;;;;;7.60;4.68;;;26.20;99.90;;;;;;5012029;28;20054;-71
2022/05/19 11:06:55;;;;;;;13.65;5.07;;;26.30;99.90;;;;;;5027170;28;20143;-71
2022/05/19 11:09:30;;;;;;;10.77;4.70;;;26.50;99.90;;;;;;5054178;28;20040;-71
2022/05/19 11:12:02;;;;;;;7.70;5.65;;;26.70;99.90;;;;;;5090954;28;20047;-72
2022/05/19 11:14:43;;;;;;;8.57;5.70;;;26.70;99.90;;;;;;5072776;28;20047;-71
2022/05/19 11:17:27;;;;;;;7.25;4.40;;;26.80;99.90;;;;;;5090873;28;20048;-73
2022/05/19 11:20:00;;;;;;;7.35;5.63;;;26.90;99.90;;;;;;5072558;28;20055;-71
2022/05/19 11:22:30;;;;;;;7.25;5.07;;;27.00;99.90;;;;;;5090769;28;20051;-70
2022/05/19 11:28:06;;;;;;;9.23;4.80;;;26.90;99.90;;;;;;5072387;28;20158;-71
2022/05/19 11:30:37;;;;;;;7.70;4.05;;;26.80;99.90;;;;;;5090323;28;20082;-71
2022/05/19 11:33:07;;;;;;;11.48;4.88;;;26.70;99.90;;;;;;5090747;28;20044;-71
2022/05/19 11:35:44;;;;;;;6.72;5.00;;;26.60;99.90;;;;;;5090610;28;20036;-73
2022/05/19 11:38:27;;;;;;;9.25;5.80;;;26.60;99.90;;;;;;5090489;28;20043;-74
2022/05/19 11:41:14;;;;;;;7.32;4.88;;;26.60;99.90;;;;;;5090774;28;20122;-71
2022/05/19 11:43:39;;;;;;;9.10;4.82;;;26.80;99.90;;;;;;5072487;28;20429;-77
2022/05/19 11:46:17;;;;;;;6.45;4.13;;;27.00;99.90;;;;;;5072050;28;20055;-73
2022/05/19 11:55:19;;;;;;;8.05;5.15;;;27.00;99.90;;;;;;5090606;28;20059;-73
2022/05/19 11:57:45;;;;;;;9.98;6.10;;;26.80;99.90;;;;;;5056043;28;20055;-72
2022/05/19 12:00:12;;;;;;;12.80;6.45;;;26.70;99.90;;;;;;5072369;28;20044;-72
2022/05/19 12:02:51;;;;;;;9.88;6.70;;;26.50;99.90;;;;;;5090119;28;20040;-71
2022/05/19 12:05:50;;;;;;;10.18;6.55;;;26.50;99.90;;;;;;5082563;28;20088;-71
2022/05/19 12:08:25;;;;;;;7.07;5.65;;;26.40;99.90;;;;;;4952831;28;20133;-72
2022/05/19 12:11:08;;;;;;;13.07;6.25;;;26.30;99.90;;;;;;4952882;28;20051;-73
2022/05/19 12:13:36;;;;;;;8.50;4.63;;;26.20;99.90;;;;;;4968594;28;20058;-72
2022/05/19 12:16:17;;;;;;;7.57;5.07;;;26.10;99.90;;;;;;4952682;28;20050;-72
2022/05/19 12:19:08;;;;;;;10.82;5.47;;;25.90;99.90;;;;;;4952487;28;20063;-71
2022/05/19 12:22:10;;;;;;;8.43;6.75;;;25.80;99.90;;;;;;4895987;29;20167;-72
2022/05/19 12:24:50;;;;;;;10.48;6.75;;;25.70;99.90;;;;;;4902180;29;20123;-72
2022/05/19 12:27:23;;;;;;;15.15;7.45;;;25.60;99.90;;;;;;4895578;29;20067;-71
2022/05/19 12:33:11;;;;;;;12.32;8.20;;;25.30;99.90;;;;;;4910983;29;20520;-71
2022/05/19 12:35:38;;;;;;;11.65;8.00;;;25.20;99.90;;;;;;4911769;29;20052;-76
2022/05/19 12:38:26;;;;;;;11.20;8.48;;;25.00;99.90;;;;;;4911608;28;20115;-72
2022/05/19 12:40:54;;;;;;;13.30;7.28;;;24.80;99.90;;;;;;4895440;29;20131;-71
2022/05/19 12:43:21;;;;;;;12.68;7.72;;;24.60;99.90;;;;;;4895591;29;20135;-70
2022/05/19 12:45:58;;;;;;;13.55;7.20;;;24.20;99.90;;;;;;4977816;28;20121;-72
2022/05/19 12:48:44;;;;;;;9.00;5.55;;;23.90;99.90;;;;;;5007408;28;20113;-73
2022/05/19 12:51:16;;;;;;;7.35;4.65;;;23.50;99.90;;;;;;5007201;28;20062;-73
2022/05/19 12:53:51;;;;;;;7.15;3.60;;;22.50;99.90;;;;;;5007618;28;20060;-71
2022/05/19 12:56:35;;;;;;;;;;;22.10;99.90;;;;;;5007965;28;20401;-72
2022/05/19 12:59:05;;;;;;;6.57;2.20;;;21.40;99.90;;;;;;5050145;28;19973;-70
2022/05/19 13:01:50;;;;;;;6.18;2.50;;;21.10;99.90;;;;;;5069586;28;20131;-72
2022/05/19 13:04:28;;;;;;;7.97;1.50;;;21.00;99.90;;;;;;5055036;28;20392;-73
2022/05/19 13:07:24;;;;;;;5.55;1.58;;;20.70;99.90;;;;;;5057310;28;20083;-72
2022/05/19 13:10:01;;;;;;;6.65;1.77;;;20.30;99.90;;;;;;5074850;28;20075;-72
2022/05/19 13:12:29;;;;;;;3.58;1.25;;;20.20;99.90;;;;;;5093004;28;20055;-74
2022/05/19 13:15:02;;;;;;;4.47;1.30;;;19.90;99.90;;;;;;5093337;28;20685;-71
2022/05/19 13:17:43;;;;;;;5.20;1.70;;;19.70;99.90;;;;;;5075003;28;20051;-71